createdAt,value
2023-02-08T05:12:51.744Z,100.00
2023-02-08T05:13:56.990Z,100.00
2023-02-08T05:15:08.309Z,100.00
2023-02-08T05:16:11.588Z,100.00
2023-02-08T05:17:14.674Z,100.00
2023-02-08T05:18:17.942Z,100.00
2023-02-08T05:19:26.433Z,100.00
2023-02-08T05:20:34.682Z,100.00
2023-02-08T05:21:40.155Z,100.00
2023-02-08T05:22:43.517Z,100.00
2023-02-08T05:23:47.451Z,100.00
2023-02-08T05:24:53.872Z,100.00
2023-02-08T05:25:56.798Z,100.00
2023-02-08T05:26:59.536Z,100.00
2023-02-08T05:28:02.407Z,100.00
2023-02-08T05:29:05.492Z,100.00
2023-02-08T05:30:11.190Z,100.00
2023-02-08T05:31:23.312Z,100.00
2023-02-08T05:32:28.347Z,100.00
2023-02-08T05:40:07.866Z,100.00
2023-02-08T05:41:12.420Z,100.00
2023-02-08T05:42:16.666Z,100.00
2023-02-08T05:43:24.761Z,100.00
2023-02-08T05:44:35.052Z,100.00
2023-02-08T05:45:46.684Z,100.00
2023-02-08T05:46:54.139Z,100.00
2023-02-08T05:47:57.288Z,100.00
2023-02-08T05:49:05.873Z,100.00
2023-02-08T05:50:09.423Z,100.00
2023-02-08T05:51:21.508Z,100.00
2023-02-08T05:52:24.607Z,100.00
2023-02-08T05:53:32.979Z,100.00
2023-02-08T05:54:36.334Z,100.00
2023-02-08T05:55:39.071Z,100.00
2023-02-08T05:56:49.467Z,100.00
2023-02-08T05:57:55.412Z,100.00
2023-02-08T05:59:01.692Z,100.00
2023-02-08T06:00:16.065Z,100.00
2023-02-08T06:01:23.966Z,100.00
2023-02-08T06:02:28.648Z,100.00
2023-02-08T06:03:35.253Z,100.00
2023-02-08T06:04:39.373Z,100.00
2023-02-08T06:05:42.701Z,100.00
2023-02-08T06:06:46.644Z,100.00
2023-02-08T06:07:57.183Z,100.00
2023-02-08T06:09:01.392Z,100.00
2023-02-08T06:10:05.210Z,100.00
2023-02-08T06:11:08.638Z,100.00
2023-02-08T06:12:15.776Z,100.00
2023-02-08T06:13:27.357Z,100.00
2023-02-08T06:14:39.054Z,100.00
2023-02-08T06:15:44.102Z,100.00
2023-02-08T06:16:50.322Z,100.00
2023-02-08T06:17:55.642Z,100.00
2023-02-08T06:19:03.779Z,100.00
2023-02-08T06:20:10.707Z,100.00
2023-02-08T06:21:24.151Z,100.00
2023-02-08T06:22:28.749Z,100.00
2023-02-08T06:23:35.770Z,100.00
2023-02-08T06:24:41.665Z,100.00
2023-02-08T06:25:44.817Z,100.00
2023-02-08T06:26:50.814Z,100.00
2023-02-08T06:27:57.559Z,100.00
2023-02-08T06:29:01.624Z,100.00
2023-02-08T06:30:07.012Z,100.00
2023-02-08T06:31:10.530Z,100.00
2023-02-08T06:32:17.461Z,100.00
2023-02-08T06:33:22.597Z,100.00
2023-02-08T06:34:34.818Z,100.00
2023-02-08T06:35:38.777Z,100.00
2023-02-08T06:42:14.404Z,100.00
2023-02-08T06:43:18.818Z,100.00
2023-02-08T06:44:25.026Z,100.00
2023-02-08T06:45:29.324Z,100.00
2023-02-08T06:46:36.529Z,100.00
2023-02-08T06:47:46.888Z,100.00
2023-02-08T06:48:50.609Z,100.00
2023-02-08T06:50:04.475Z,100.00
2023-02-08T06:51:07.945Z,100.00
2023-02-08T06:52:15.828Z,100.00
2023-02-08T06:53:18.908Z,100.00
2023-02-08T06:54:24.247Z,100.00
2023-02-08T06:55:28.009Z,100.00
2023-02-08T06:56:32.407Z,100.00
2023-02-08T06:57:42.812Z,100.00
2023-02-08T06:58:48.030Z,100.00
2023-02-08T06:59:53.217Z,100.00
2023-02-08T07:00:57.790Z,100.00
2023-02-08T07:02:14.000Z,100.00
2023-02-08T07:03:22.951Z,100.00
2023-02-08T07:04:28.986Z,100.00
2023-02-08T07:05:49.507Z,100.00
2023-02-08T07:07:09.574Z,100.00
2023-02-08T07:08:14.678Z,100.00
2023-02-08T07:09:25.707Z,100.00
2023-02-08T07:10:39.696Z,100.00
2023-02-08T07:11:42.766Z,100.00
2023-02-08T07:12:51.081Z,100.00
2023-02-08T07:13:56.626Z,99.93
2023-02-08T07:15:00.744Z,99.29
2023-02-08T07:52:14.883Z,97.32
2023-02-08T07:53:19.025Z,97.34
2023-02-08T07:54:34.942Z,97.29
2023-02-08T07:55:39.588Z,97.08
2023-02-08T07:56:47.409Z,96.58
2023-02-08T07:57:51.783Z,97.07
2023-02-08T07:58:55.622Z,96.33
2023-02-08T08:00:01.020Z,96.17
2023-02-08T08:01:23.143Z,97.03
2023-02-08T08:02:27.246Z,96.51
2023-02-08T08:03:32.207Z,96.42
2023-02-08T08:04:38.624Z,96.29
2023-02-08T08:05:42.989Z,96.66
2023-02-08T08:06:56.883Z,95.70
2023-02-08T08:08:11.789Z,95.44
2023-02-08T08:09:18.040Z,95.37
2023-02-08T08:10:46.505Z,95.91
2023-02-08T08:11:55.960Z,95.63
2023-02-08T08:13:03.580Z,96.11
2023-02-08T08:14:06.451Z,96.18
2023-02-08T08:15:14.136Z,95.75
2023-02-08T08:16:22.937Z,95.81
2023-02-08T08:22:43.389Z,96.59
2023-02-08T08:23:50.967Z,98.68
2023-02-08T08:25:10.763Z,97.54
2023-02-08T08:26:17.960Z,97.85
2023-02-08T08:27:25.725Z,96.97
2023-02-08T08:28:28.714Z,96.83
2023-02-08T08:30:59.846Z,97.19
2023-02-08T08:32:04.855Z,97.17
2023-02-08T08:33:14.632Z,99.54
2023-02-08T08:34:24.544Z,98.90
2023-02-08T08:35:30.133Z,98.19
2023-02-08T08:36:35.775Z,98.20
2023-02-08T08:37:46.129Z,97.48
2023-02-08T08:38:51.173Z,96.00
2023-02-08T08:39:56.516Z,97.03
2023-02-08T08:41:00.755Z,95.51
2023-02-08T08:42:07.758Z,95.68
2023-02-08T08:43:10.977Z,97.23
2023-02-08T08:44:18.319Z,96.67
2023-02-08T08:45:27.914Z,96.78
2023-02-08T08:46:39.829Z,97.17
2023-02-08T08:47:46.143Z,97.46
2023-02-08T08:48:55.082Z,97.35
2023-02-08T08:50:00.498Z,98.18
2023-02-08T08:51:09.997Z,97.97
2023-02-08T08:52:19.779Z,98.88
2023-02-08T08:53:31.026Z,98.84
2023-02-08T08:54:36.584Z,99.23
2023-02-08T08:55:40.944Z,99.31
2023-02-08T08:56:46.454Z,98.98
2023-02-08T08:57:54.254Z,99.23
2023-02-08T08:58:59.939Z,98.88
2023-02-08T09:00:05.054Z,99.17
2023-02-08T09:01:12.622Z,99.19
2023-02-08T09:02:23.692Z,98.45
2023-02-08T09:03:33.698Z,98.86
2023-02-08T09:04:37.358Z,99.51
2023-02-08T09:05:51.782Z,99.35
2023-02-08T09:06:56.953Z,99.41
2023-02-08T09:08:05.747Z,100.00
2023-02-08T09:09:11.112Z,100.00
2023-02-08T09:10:17.303Z,100.00
2023-02-08T09:11:22.649Z,100.00
2023-02-08T09:12:28.842Z,100.00
2023-02-08T09:13:32.473Z,99.76
2023-02-08T09:14:48.708Z,98.42
2023-02-08T09:15:58.283Z,97.75
2023-02-08T09:17:02.437Z,97.61
2023-02-08T09:18:05.533Z,96.63
2023-02-08T09:19:13.621Z,97.03
2023-02-08T09:22:09.189Z,95.94
2023-02-08T09:23:13.842Z,95.98
2023-02-08T09:24:17.427Z,94.55
2023-02-08T09:25:21.201Z,93.67
2023-02-08T09:26:29.796Z,93.72
2023-02-08T09:27:35.701Z,94.56
2023-02-08T09:28:40.603Z,94.22
2023-02-08T09:29:46.383Z,93.81
2023-02-08T09:30:50.014Z,93.56
2023-02-08T09:31:55.835Z,93.48
2023-02-08T09:33:01.296Z,93.64
2023-02-08T09:34:09.350Z,92.67
2023-02-08T09:35:20.634Z,93.44
2023-02-08T09:36:29.863Z,92.77
2023-02-08T09:37:35.154Z,91.99
2023-02-08T09:38:40.646Z,91.69
2023-02-08T09:39:46.632Z,91.86
2023-02-08T09:41:29.194Z,91.20
2023-02-08T09:42:40.925Z,91.93
2023-02-08T09:44:20.877Z,91.49
2023-02-08T09:45:58.119Z,91.53
2023-02-08T09:47:22.836Z,92.60
2023-02-08T09:48:37.898Z,92.61
2023-02-08T09:50:09.146Z,94.15
2023-02-08T09:51:36.839Z,94.07
2023-02-08T09:53:07.075Z,94.01
2023-02-08T09:54:23.292Z,93.67
2023-02-08T09:55:42.440Z,94.57
2023-02-08T09:56:54.333Z,93.44
2023-02-08T09:58:01.189Z,93.77
2023-02-08T09:59:10.901Z,93.14
2023-02-08T10:00:23.323Z,94.58
2023-02-08T10:01:38.676Z,96.67
2023-02-08T10:02:56.525Z,97.08
2023-02-08T10:04:16.256Z,99.19
2023-02-08T10:05:26.109Z,97.20
2023-02-08T10:06:32.982Z,97.28
2023-02-08T10:07:42.170Z,98.44
2023-02-08T10:08:54.980Z,100.00
2023-02-08T10:10:03.110Z,100.00
2023-02-08T10:11:36.736Z,100.00
2023-02-08T10:13:06.922Z,99.01
2023-02-08T10:14:35.572Z,99.83
2023-02-08T10:15:53.456Z,99.34
2023-02-08T10:17:33.993Z,98.20
2023-02-08T10:18:57.104Z,97.58
2023-02-08T10:20:22.828Z,96.98
2023-02-08T10:21:44.277Z,95.48
2023-02-08T10:23:21.126Z,95.13
2023-02-08T10:25:06.727Z,94.24
2023-02-08T10:26:32.737Z,93.12
2023-02-08T10:28:08.014Z,92.59
2023-02-08T10:29:44.649Z,92.12
2023-02-08T10:30:59.840Z,91.08
2023-02-08T10:32:38.934Z,91.17
2023-02-08T10:34:06.182Z,90.87
2023-02-08T10:35:16.468Z,91.97
2023-02-08T10:36:24.901Z,90.29
2023-02-08T10:37:39.525Z,88.67
2023-02-08T10:38:53.951Z,87.87
2023-02-08T10:40:03.693Z,87.14
2023-02-08T10:41:08.961Z,87.05
2023-02-08T10:42:21.085Z,85.66
2023-02-08T10:43:42.424Z,84.54
2023-02-08T10:44:49.622Z,83.28
2023-02-08T10:46:06.016Z,82.24
2023-02-08T10:47:24.422Z,82.42
2023-02-08T10:48:37.609Z,82.73
2023-02-08T10:50:02.487Z,84.01
2023-02-08T10:51:17.627Z,84.23
2023-02-08T10:52:23.702Z,83.96
2023-02-08T10:53:40.077Z,83.06
2023-02-08T10:54:50.300Z,83.21
2023-02-08T10:55:54.787Z,84.26
2023-02-08T10:57:28.755Z,82.42
2023-02-08T10:58:39.929Z,82.06
2023-02-08T10:59:57.470Z,82.56
2023-02-08T11:01:07.913Z,82.76
2023-02-08T11:02:32.522Z,82.68
2023-02-08T11:03:42.041Z,83.00
2023-02-08T11:05:08.511Z,82.87
2023-02-08T11:06:32.690Z,83.80
2023-02-08T11:07:45.495Z,83.85
2023-02-08T11:09:01.837Z,86.71
2023-02-08T11:10:20.783Z,89.56
2023-02-08T11:11:27.788Z,88.61
2023-02-08T11:12:36.811Z,88.08
2023-02-08T11:13:42.960Z,87.24
2023-02-08T11:15:02.625Z,89.31
2023-02-08T11:16:10.398Z,89.12
2023-02-08T11:17:32.228Z,88.59
2023-02-08T11:18:41.240Z,88.30
2023-02-08T11:19:49.143Z,88.19
2023-02-08T21:29:45.907Z,100.00
2023-02-08T21:31:06.976Z,100.00
2023-02-08T21:32:11.391Z,100.00
2023-02-08T21:33:16.312Z,100.00
2023-02-08T21:34:33.802Z,100.00
2023-02-08T21:35:41.524Z,100.00
2023-02-08T21:36:59.157Z,100.00
2023-02-08T21:38:08.943Z,100.00
2023-02-08T21:39:20.855Z,100.00
2023-02-08T21:40:27.613Z,100.00
2023-02-08T21:41:37.901Z,100.00
2023-02-08T21:44:18.968Z,100.00
2023-02-08T21:45:22.805Z,100.00
2023-02-08T21:46:28.838Z,100.00
2023-02-08T21:47:43.751Z,100.00
2023-02-08T21:49:29.188Z,100.00
2023-02-08T21:50:53.631Z,100.00
2023-02-08T21:52:22.946Z,100.00
2023-02-08T21:53:51.019Z,100.00
